WFDK1: Walnut River, Winfield, KS

Data processed at Thu May 23 2019 23:50


All information presented herein is the property of the government of the United States of America and may be revised or deleted at any time without prior notice.
Dissemination of this information without the expressed written consent of the Public Affairs Office, Tulsa District U.S. Army Corps of Engineers is strictly prohibited.
These data are gathered electronically and, as presented, have not undergone any form of quality control. These data are not guaranteed to be valid or correct.
Go to home page.
Go to station list.
Go to home page.

Upstream stations:

Downstream station:
Previous Day
Next Day
Current Day
    
SHEF ID:       WFDK1     WALNUT R AT WINFIELD, KS
STATION TYPE:  
Regulating: Stage =    18.00, Flow =    17822

               PRECIP     STAGE  STAGE(2)  RIV-FLOW  BAT-LOAD
                   in        ft        ft       cfs      volt
              Ccp-Rev   Ccp-Rev   Ccp-Rev   Ccp-Rev   Ccp-Rev
(US/Central)
05/23 00:00      0.03     33.70      ----     46095     12.65
05/23 01:00      0.00     33.51      ----     45419     12.57
05/23 02:00      0.00     33.38      ----     44960     12.57
05/23 03:00      0.00     33.00      ----     43704     12.57
05/23 04:00      0.00     32.90      ----     43421     12.57
05/23 05:00      0.02     32.75      ----     42999     12.57
05/23 06:00      0.00     32.51      ----     42329     12.57
05/23 07:00      0.00     32.30      ----     41746     12.57
05/23 08:00      0.00     32.06      ----     41152     12.57
05/23 09:00      0.01     31.79      ----     40576     12.57
05/23 10:00      0.00     31.68      ----     40342     12.57
05/23 11:00      0.00     31.36      ----     39665     12.57
05/23 12:00      0.00     31.09      ----     39097     12.65
05/23 13:00      0.00     30.90      ----     38749     13.05
05/23 14:00      0.00     30.57      ----     38162     13.05
05/23 15:00      0.00     30.37      ----     37808     13.05
05/23 16:00      0.00     30.11      ----     37349     12.97
05/23 17:00      0.00     29.64      ----     36522     12.81
05/23 18:00      0.00     29.31      ----     35946     12.73
05/23 19:00      0.00     29.01      ----     35425     12.73
05/23 20:00      0.00     28.56      ----     34647     12.65
05/23 21:00      0.00     28.19      ----     34011     12.65
05/23 22:00      0.00     27.82      ----     33377     12.57
05/23 23:00      0.00     27.46      ----     32764     12.57